Island Lookout — WDF6311 — position and weather

sailwx.info

Track history (hours):
 
Tides and Currents Weather Stations Pressure Air Temp Water Temp Dewpoint Dewpoint Depression Visibility Wind Speed Wind Dir Waves Ship Positions

Island Lookout

Owner: Stevens Towing Company Inc., Yonges Island, SC. More information available from US FCC via Universal Licensing System and Coast Guard Vessel Documentation Center.

Last reported at 2016-Jun-24 11:07 UTC. Time now 2016-Jun-24 22:12 UTC.
Position N 36°43' W 076°14'.

Length 22 m; draft 2.9 m.

Type: Towing. MMSI: 367472930.

Date/timePositionNaut miles runAvg speedWind from/ knotsBaromVisibWave heightAir tempDewpointWater temp
2016-Jun-24 11:07N 36°43' W 076°14'0 0.5
2016-Jun-24 10:26N 36°43' W 076°15'0 0.0
2016-Jun-24 09:24N 36°43' W 076°15'98 3.8
2016-Jun-23 07:17N 38°21' W 076°21'11 5.9
2016-Jun-23 05:27N 38°32' W 076°26'7 6.4
2016-Jun-23 04:20N 38°39' W 076°27'5 6.6
2016-Jun-23 03:33N 38°44' W 076°27'7 6.6
2016-Jun-23 02:29N 38°51' W 076°26'20 5.8
2016-Jun-22 23:04N 39°11' W 076°26'3 6.4
2016-Jun-22 22:33N 39°12' W 076°30'4 3.6
2016-Jun-22 21:34N 39°12' W 076°35'0 0.0
2016-Jun-22 20:34N 39°12' W 076°35'0 0.0
2016-Jun-22 19:33N 39°12' W 076°35'0 0.0
2016-Jun-22 18:34N 39°12' W 076°35'0 0.0
2016-Jun-22 17:34N 39°12' W 076°35'1 1.4
2016-Jun-22 16:34N 39°14' W 076°34'1 1.4
2016-Jun-22 15:34N 39°12' W 076°35'0 0.1
2016-Jun-22 14:34N 39°12' W 076°35'0 0.0
2016-Jun-22 13:34N 39°12' W 076°35'0 0.0
2016-Jun-22 12:34N 39°12' W 076°35'0 0.0
2016-Jun-22 11:33N 39°12' W 076°35'0 0.0
2016-Jun-22 10:34N 39°12' W 076°35'0 0.0
2016-Jun-22 09:33N 39°12' W 076°35'0 0.0
2016-Jun-22 08:33N 39°12' W 076°35'0 0.0
2016-Jun-22 07:34N 39°12' W 076°35'0 0.0
2016-Jun-22 06:34N 39°12' W 076°35'3 2.6
2016-Jun-22 05:34N 39°15' W 076°33'3 2.9
2016-Jun-22 04:34N 39°17' W 076°36'0 0.0
2016-Jun-22 03:34N 39°17' W 076°36'0 0.0
2016-Jun-22 02:34N 39°17' W 076°36'0 0.0
2016-Jun-22 01:34N 39°17' W 076°36'0 0.0
2016-Jun-22 00:34N 39°17' W 076°36'0 0.0
2016-Jun-21 23:34N 39°17' W 076°36'0 0.0
2016-Jun-21 22:33N 39°17' W 076°36'5 4.6
2016-Jun-21 21:34N 39°12' W 076°35'0 0.0
2016-Jun-21 20:34N 39°12' W 076°35'5 4.5
2016-Jun-21 19:33N 39°12' W 076°29'8 4.2
2016-Jun-21 17:33N 39°04' W 076°24'6 5.7
2016-Jun-21 16:33N 38°59' W 076°23'125 6.9
2016-Jun-20 22:24N 36°53' W 076°20'5 6.2
2016-Jun-20 21:33N 36°48' W 076°17'5 4.7
2016-Jun-20 20:33N 36°44' W 076°17'2 1.7
2016-Jun-20 19:33N 36°43' W 076°15'0 0.0
2016-Jun-20 18:33N 36°43' W 076°15'0 0.0
2016-Jun-20 17:33N 36°43' W 076°15'0 0.0
2016-Jun-20 16:33N 36°43' W 076°15'0 0.0
2016-Jun-20 15:33N 36°43' W 076°15'  
2016-Jun-17 11:09N 36°43' W 076°14'0 0.1
2016-Jun-17 03:14N 36°43' W 076°15'2 0.5
2016-Jun-16 22:27N 36°44' W 076°18'4 4.4
2016-Jun-16 21:33N 36°48' W 076°17'0 0.1
2016-Jun-16 20:33N 36°48' W 076°17'129 5.2
2016-Jun-15 19:33N 38°57' W 076°24'6 5.9
2016-Jun-15 18:28N 39°03' W 076°23'6 5.9
2016-Jun-15 17:31N 39°09' W 076°25'6 5.8
2016-Jun-15 16:33N 39°12' W 076°31'1 1.0
2016-Jun-15 15:33N 39°13' W 076°30'0 0.0
2016-Jun-15 14:33N 39°13' W 076°30'0 0.0
2016-Jun-15 13:33N 39°13' W 076°30'3 3.3
2016-Jun-15 12:33N 39°14' W 076°34'0 0.0
2016-Jun-15 11:33N 39°14' W 076°34'1 0.9
2016-Jun-15 10:33N 39°13' W 076°33'2 2.2
2016-Jun-15 09:28N 39°13' W 076°30'0 0.0
2016-Jun-15 08:32N 39°13' W 076°30'0 0.0
2016-Jun-15 07:33N 39°13' W 076°30'0 0.0
2016-Jun-15 06:33N 39°13' W 076°30'0 0.0
2016-Jun-15 05:34N 39°13' W 076°30'0 0.0
2016-Jun-15 04:33N 39°13' W 076°30'0 0.0
2016-Jun-15 03:34N 39°13' W 076°30'0 0.0
2016-Jun-15 02:34N 39°13' W 076°30'0 0.0
2016-Jun-15 01:33N 39°13' W 076°30'0 0.0
2016-Jun-15 00:33N 39°13' W 076°30'0 0.0
2016-Jun-14 23:34N 39°13' W 076°30'0 0.0
2016-Jun-14 22:33N 39°13' W 076°30'0 0.0
2016-Jun-14 21:31N 39°13' W 076°30'0 0.0
2016-Jun-14 20:33N 39°13' W 076°30'0 0.0
2016-Jun-14 19:31N 39°13' W 076°30'4 4.5
2016-Jun-14 18:33N 39°10' W 076°26'8 7.6
2016-Jun-14 17:34N 39°03' W 076°23'7 7.0
2016-Jun-14 16:32N 38°56' W 076°24'  
Track history (hours):
 
Tides and Currents Weather Stations Pressure Air Temp Water Temp Dewpoint Dewpoint Depression Visibility Wind Speed Wind Dir Waves Ship Positions

Island Lookout

Owner: Stevens Towing Company Inc., Yonges Island, SC. More information available from US FCC via Universal Licensing System and Coast Guard Vessel Documentation Center.

Last reported at 2016-Jun-24 11:07 UTC. Time now 2016-Jun-24 22:12 UTC.
Position N 36°43' W 076°14'.

Length 22 m; draft 2.9 m.

Type: Towing. MMSI: 367472930.

Date/timePositionNaut miles runAvg speedWind from/ knotsBaromVisibWave heightAir tempDewpointWater temp
2016-Jun-24 11:07N 36°43' W 076°14'0 0.5
2016-Jun-24 10:26N 36°43' W 076°15'0 0.0
2016-Jun-24 09:24N 36°43' W 076°15'98 3.8
2016-Jun-23 07:17N 38°21' W 076°21'11 5.9
2016-Jun-23 05:27N 38°32' W 076°26'7 6.4
2016-Jun-23 04:20N 38°39' W 076°27'5 6.6
2016-Jun-23 03:33N 38°44' W 076°27'7 6.6
2016-Jun-23 02:29N 38°51' W 076°26'20 5.8
2016-Jun-22 23:04N 39°11' W 076°26'3 6.4
2016-Jun-22 22:33N 39°12' W 076°30'4 3.6
2016-Jun-22 21:34N 39°12' W 076°35'0 0.0
2016-Jun-22 20:34N 39°12' W 076°35'0 0.0
2016-Jun-22 19:33N 39°12' W 076°35'0 0.0
2016-Jun-22 18:34N 39°12' W 076°35'0 0.0
2016-Jun-22 17:34N 39°12' W 076°35'1 1.4
2016-Jun-22 16:34N 39°14' W 076°34'1 1.4
2016-Jun-22 15:34N 39°12' W 076°35'0 0.1
2016-Jun-22 14:34N 39°12' W 076°35'0 0.0
2016-Jun-22 13:34N 39°12' W 076°35'0 0.0
2016-Jun-22 12:34N 39°12' W 076°35'0 0.0
2016-Jun-22 11:33N 39°12' W 076°35'0 0.0
2016-Jun-22 10:34N 39°12' W 076°35'0 0.0
2016-Jun-22 09:33N 39°12' W 076°35'0 0.0
2016-Jun-22 08:33N 39°12' W 076°35'0 0.0
2016-Jun-22 07:34N 39°12' W 076°35'0 0.0
2016-Jun-22 06:34N 39°12' W 076°35'3 2.6
2016-Jun-22 05:34N 39°15' W 076°33'3 2.9
2016-Jun-22 04:34N 39°17' W 076°36'0 0.0
2016-Jun-22 03:34N 39°17' W 076°36'0 0.0
2016-Jun-22 02:34N 39°17' W 076°36'0 0.0
2016-Jun-22 01:34N 39°17' W 076°36'0 0.0
2016-Jun-22 00:34N 39°17' W 076°36'0 0.0
2016-Jun-21 23:34N 39°17' W 076°36'0 0.0
2016-Jun-21 22:33N 39°17' W 076°36'5 4.6
2016-Jun-21 21:34N 39°12' W 076°35'0 0.0
2016-Jun-21 20:34N 39°12' W 076°35'5 4.5
2016-Jun-21 19:33N 39°12' W 076°29'8 4.2
2016-Jun-21 17:33N 39°04' W 076°24'6 5.7
2016-Jun-21 16:33N 38°59' W 076°23'125 6.9
2016-Jun-20 22:24N 36°53' W 076°20'5 6.2
2016-Jun-20 21:33N 36°48' W 076°17'5 4.7
2016-Jun-20 20:33N 36°44' W 076°17'2 1.7
2016-Jun-20 19:33N 36°43' W 076°15'0 0.0
2016-Jun-20 18:33N 36°43' W 076°15'0 0.0
2016-Jun-20 17:33N 36°43' W 076°15'0 0.0
2016-Jun-20 16:33N 36°43' W 076°15'0 0.0
2016-Jun-20 15:33N 36°43' W 076°15'  
2016-Jun-17 11:09N 36°43' W 076°14'0 0.1
2016-Jun-17 03:14N 36°43' W 076°15'2 0.5
2016-Jun-16 22:27N 36°44' W 076°18'4 4.4
2016-Jun-16 21:33N 36°48' W 076°17'0 0.1
2016-Jun-16 20:33N 36°48' W 076°17'129 5.2
2016-Jun-15 19:33N 38°57' W 076°24'6 5.9
2016-Jun-15 18:28N 39°03' W 076°23'6 5.9
2016-Jun-15 17:31N 39°09' W 076°25'6 5.8
2016-Jun-15 16:33N 39°12' W 076°31'1 1.0
2016-Jun-15 15:33N 39°13' W 076°30'0 0.0
2016-Jun-15 14:33N 39°13' W 076°30'0 0.0
2016-Jun-15 13:33N 39°13' W 076°30'3 3.3
2016-Jun-15 12:33N 39°14' W 076°34'0 0.0
2016-Jun-15 11:33N 39°14' W 076°34'1 0.9
2016-Jun-15 10:33N 39°13' W 076°33'2 2.2
2016-Jun-15 09:28N 39°13' W 076°30'0 0.0
2016-Jun-15 08:32N 39°13' W 076°30'0 0.0
2016-Jun-15 07:33N 39°13' W 076°30'0 0.0
2016-Jun-15 06:33N 39°13' W 076°30'0 0.0
2016-Jun-15 05:34N 39°13' W 076°30'0 0.0
2016-Jun-15 04:33N 39°13' W 076°30'0 0.0
2016-Jun-15 03:34N 39°13' W 076°30'0 0.0
2016-Jun-15 02:34N 39°13' W 076°30'0 0.0
2016-Jun-15 01:33N 39°13' W 076°30'0 0.0
2016-Jun-15 00:33N 39°13' W 076°30'0 0.0
2016-Jun-14 23:34N 39°13' W 076°30'0 0.0
2016-Jun-14 22:33N 39°13' W 076°30'0 0.0
2016-Jun-14 21:31N 39°13' W 076°30'0 0.0
2016-Jun-14 20:33N 39°13' W 076°30'0 0.0
2016-Jun-14 19:31N 39°13' W 076°30'4 4.5
2016-Jun-14 18:33N 39°10' W 076°26'8 7.6
2016-Jun-14 17:34N 39°03' W 076°23'7 7.0
2016-Jun-14 16:32N 38°56' W 076°24'  

Dump ship's entire track history